Time;durP1;ratioP1;P1;durP2;ratioP2;P2;SDS_P1;SDS_P2;PMS_P1;PMS_P2;Temp;Humidity;BMP_temperature;BMP_pressure;BME280_temperature;BME280_humidity;BME280_pressure;Samples;Min_cycle;Max_cycle;Signal;HPM_P1;HPM_P2
2021/01/23 00:00:53;;;;;;;5.75;2.63;;;14.00;61.90;;;;;;4994159;28;20041;-70
2021/01/23 00:03:20;;;;;;;7.95;1.95;;;13.90;62.30;;;;;;4996124;28;21015;-70
2021/01/23 00:05:47;;;;;;;6.85;1.92;;;13.90;62.20;;;;;;4996224;28;20568;-71
2021/01/23 00:08:13;;;;;;;9.05;2.03;;;13.90;62.20;;;;;;4998643;28;20053;-69
2021/01/23 00:10:40;;;;;;;21.90;6.13;;;14.00;61.50;;;;;;4995060;28;20026;-72
2021/01/23 00:13:06;;;;;;;14.00;3.45;;;14.00;61.90;;;;;;4993455;28;20038;-72
2021/01/23 00:15:33;;;;;;;9.15;2.15;;;14.00;61.10;;;;;;4992680;28;20374;-71
2021/01/23 00:17:59;;;;;;;8.57;2.70;;;14.00;61.20;;;;;;4985251;28;20038;-71
2021/01/23 00:20:25;;;;;;;6.93;2.92;;;13.80;61.70;;;;;;4991590;28;20034;-71
2021/01/23 00:22:52;;;;;;;7.43;2.78;;;13.90;61.80;;;;;;4989550;28;20170;-71
2021/01/23 00:25:19;;;;;;;4.55;1.75;;;13.80;62.00;;;;;;4991743;28;20037;-70
2021/01/23 00:27:45;;;;;;;10.93;2.38;;;13.70;62.40;;;;;;4990189;28;20019;-71
2021/01/23 00:30:12;;;;;;;9.18;2.10;;;14.00;61.50;;;;;;4988727;28;20305;-73
2021/01/23 00:32:38;;;;;;;6.10;1.73;;;14.20;61.40;;;;;;4990878;28;20053;-72
2021/01/23 00:35:05;;;;;;;11.13;3.00;;;14.20;61.60;;;;;;4983284;28;20056;-73
2021/01/23 00:37:32;;;;;;;15.00;3.25;;;14.30;61.50;;;;;;4989748;28;20025;-74
2021/01/23 00:39:58;;;;;;;8.55;2.55;;;14.30;61.60;;;;;;4992358;28;20039;-76
2021/01/23 00:42:24;;;;;;;4.47;1.80;;;14.20;62.20;;;;;;4990310;28;20033;-76
2021/01/23 00:44:51;;;;;;;8.93;2.25;;;14.00;61.40;;;;;;4993472;28;20022;-76
2021/01/23 00:47:17;;;;;;;8.30;2.20;;;14.00;60.90;;;;;;4994037;28;20030;-71
2021/01/23 00:49:45;;;;;;;8.48;1.98;;;13.80;61.20;;;;;;4983432;28;20058;-70
2021/01/23 00:52:11;;;;;;;10.63;2.08;;;13.60;61.80;;;;;;4994028;28;20040;-71
2021/01/23 00:54:37;;;;;;;10.70;2.92;;;13.50;61.90;;;;;;5000283;28;20495;-71
2021/01/23 00:57:04;;;;;;;7.43;2.30;;;13.50;61.60;;;;;;4996939;28;20049;-71
2021/01/23 00:59:30;;;;;;;6.03;1.80;;;13.30;62.20;;;;;;5004084;28;20464;-71
2021/01/23 01:01:57;;;;;;;6.63;2.55;;;13.40;61.50;;;;;;4993969;28;20041;-71
2021/01/23 01:04:23;;;;;;;6.80;1.90;;;13.50;61.20;;;;;;4998019;28;20133;-72
2021/01/23 01:06:49;;;;;;;5.57;2.10;;;13.20;62.70;;;;;;4991610;28;20023;-71
2021/01/23 01:09:16;;;;;;;10.77;2.50;;;13.10;62.40;;;;;;4990485;28;20041;-70
2021/01/23 01:11:42;;;;;;;7.05;2.28;;;13.00;63.20;;;;;;4983508;28;20517;-71
2021/01/23 01:14:09;;;;;;;7.90;4.43;;;13.10;62.50;;;;;;4991622;28;20030;-70
2021/01/23 01:16:35;;;;;;;13.48;4.25;;;13.00;62.90;;;;;;4988958;28;20864;-70
2021/01/23 01:19:02;;;;;;;9.95;4.05;;;13.00;63.20;;;;;;4986487;28;20045;-71
2021/01/23 01:21:28;;;;;;;11.95;8.43;;;13.00;62.60;;;;;;4986961;28;20038;-70
2021/01/23 01:23:54;;;;;;;14.68;7.63;;;13.00;62.20;;;;;;4984821;28;20185;-72
2021/01/23 01:26:21;;;;;;;9.93;4.60;;;13.10;62.10;;;;;;4990309;28;20030;-71
2021/01/23 01:28:47;;;;;;;9.27;3.88;;;13.00;62.00;;;;;;4991802;28;20037;-72
2021/01/23 01:31:13;;;;;;;9.88;4.32;;;13.00;62.20;;;;;;4984974;28;20085;-71
2021/01/23 01:33:40;;;;;;;10.52;4.43;;;12.90;62.20;;;;;;4990948;28;20037;-71
2021/01/23 01:36:06;;;;;;;12.15;5.68;;;12.90;62.20;;;;;;4992535;28;20034;-73
2021/01/23 01:38:33;;;;;;;12.73;8.38;;;12.90;61.10;;;;;;4994720;28;20030;-73
2021/01/23 01:40:59;;;;;;;14.10;6.93;;;12.90;61.20;;;;;;4994478;28;20135;-74
2021/01/23 01:43:25;;;;;;;26.98;13.75;;;12.80;61.80;;;;;;4991930;28;20026;-72
2021/01/23 01:45:52;;;;;;;21.17;12.98;;;12.80;61.20;;;;;;4995638;28;20033;-72
2021/01/23 01:48:18;;;;;;;15.30;3.80;;;12.80;60.10;;;;;;4985774;28;20022;-72
2021/01/23 01:50:45;;;;;;;12.02;3.75;;;12.80;60.70;;;;;;4982796;28;20041;-72
2021/01/23 01:53:12;;;;;;;8.93;3.42;;;12.80;61.40;;;;;;4990158;28;20038;-72
2021/01/23 01:55:38;;;;;;;10.20;3.63;;;12.70;61.00;;;;;;4992333;28;20519;-72
2021/01/23 01:58:05;;;;;;;7.25;3.53;;;12.60;61.90;;;;;;4993299;28;20519;-74
2021/01/23 02:00:32;;;;;;;11.30;4.78;;;12.40;62.30;;;;;;4993853;28;20427;-73
2021/01/23 02:03:13;;;;;;;14.00;4.60;;;12.30;61.00;;;;;;4993314;28;20037;-72
2021/01/23 02:06:23;;;;;;;14.57;4.05;;;12.30;61.00;;;;;;4991852;28;20028;-72
2021/01/23 02:08:54;;;;;;;11.75;3.97;;;12.10;61.60;;;;;;4993907;28;20037;-72
2021/01/23 02:11:50;;;;;;;11.63;4.38;;;12.10;61.90;;;;;;4994402;28;20034;-72
2021/01/23 02:14:45;;;;;;;10.68;3.50;;;11.90;62.20;;;;;;4988722;28;20026;-72
2021/01/23 02:17:17;;;;;;;10.98;4.20;;;12.00;61.80;;;;;;4992977;28;20336;-72
2021/01/23 02:20:09;;;;;;;9.98;3.72;;;11.90;63.70;;;;;;5014955;28;20352;-72
2021/01/23 02:23:13;;;;;;;13.50;4.18;;;11.90;63.20;;;;;;5001472;28;20031;-75
2021/01/23 02:26:03;;;;;;;15.10;4.20;;;11.80;63.20;;;;;;4989436;28;20037;-72
2021/01/23 02:29:08;;;;;;;13.52;3.47;;;11.80;62.40;;;;;;4986072;28;20031;-72
2021/01/23 02:31:45;;;;;;;8.63;3.53;;;11.80;63.10;;;;;;4996956;28;20046;-72
2021/01/23 02:34:17;;;;;;;10.88;3.60;;;11.80;62.70;;;;;;4988894;28;20044;-74
2021/01/23 02:36:44;;;;;;;10.13;4.00;;;11.80;63.90;;;;;;4990135;28;20042;-71
2021/01/23 02:39:13;;;;;;;10.98;3.92;;;11.80;62.30;;;;;;4990844;28;20049;-72
2021/01/23 02:41:40;;;;;;;9.50;3.72;;;11.80;63.60;;;;;;4987263;28;20027;-71
2021/01/23 02:44:07;;;;;;;17.30;4.20;;;11.80;63.70;;;;;;5006649;28;20456;-72
2021/01/23 02:46:33;;;;;;;11.55;4.22;;;11.90;63.80;;;;;;4989743;28;20026;-72
2021/01/23 02:49:00;;;;;;;13.73;4.07;;;11.90;63.80;;;;;;4996959;28;20352;-72
2021/01/23 02:51:58;;;;;;;17.38;5.15;;;11.70;64.50;;;;;;4999209;28;20025;-71
2021/01/23 02:54:46;;;;;;;7.43;3.40;;;11.70;63.30;;;;;;4984687;28;20341;-71
2021/01/23 02:57:14;;;;;;;13.50;3.35;;;11.80;63.80;;;;;;4984628;28;20038;-71
2021/01/23 02:59:42;;;;;;;10.93;3.40;;;12.00;64.80;;;;;;4979903;28;20130;-71
2021/01/23 03:02:14;;;;;;;14.30;4.00;;;11.90;64.10;;;;;;4980030;28;20037;-71
2021/01/23 03:04:43;;;;;;;9.85;3.33;;;11.90;64.00;;;;;;4989137;28;20109;-71
2021/01/23 03:07:14;;;;;;;12.60;4.13;;;11.80;64.10;;;;;;4994270;28;20065;-72
2021/01/23 03:09:40;;;;;;;8.75;3.83;;;11.90;64.80;;;;;;4979016;28;20465;-72
2021/01/23 03:12:08;;;;;;;14.52;4.95;;;11.90;64.40;;;;;;4996159;28;20023;-72
2021/01/23 03:14:35;;;;;;;10.15;3.58;;;11.90;64.70;;;;;;4989662;28;20034;-73
2021/01/23 03:17:03;;;;;;;17.50;5.38;;;11.80;65.60;;;;;;4987798;28;20038;-72
2021/01/23 03:19:29;;;;;;;15.02;6.40;;;11.90;65.00;;;;;;4989736;28;20034;-72
2021/01/23 03:21:56;;;;;;;19.35;4.80;;;12.00;64.80;;;;;;4988307;28;20034;-72
2021/01/23 03:24:23;;;;;;;15.07;4.65;;;11.90;64.20;;;;;;4984650;28;20058;-72
2021/01/23 03:26:50;;;;;;;9.82;4.28;;;11.90;65.50;;;;;;4987397;28;20105;-71
2021/01/23 03:29:18;;;;;;;11.90;4.90;;;11.90;66.00;;;;;;4991990;28;20464;-72
2021/01/23 03:31:45;;;;;;;13.68;3.92;;;11.90;65.80;;;;;;4988327;28;20381;-72
2021/01/23 03:34:12;;;;;;;10.23;4.10;;;11.90;65.80;;;;;;4986157;28;20030;-71
2021/01/23 03:36:38;;;;;;;13.23;4.05;;;11.90;65.70;;;;;;4987867;28;20031;-72
2021/01/23 03:39:06;;;;;;;11.32;4.28;;;11.90;66.30;;;;;;4988609;28;21617;-73
2021/01/23 03:41:33;;;;;;;12.60;4.03;;;11.90;66.40;;;;;;4987908;28;20026;-75
2021/01/23 03:44:01;;;;;;;14.15;4.60;;;11.90;66.30;;;;;;4994755;28;20030;-77
2021/01/23 03:46:27;;;;;;;14.50;3.90;;;12.00;66.70;;;;;;4987738;28;20042;-76
2021/01/23 03:48:54;;;;;;;11.23;4.28;;;12.00;66.10;;;;;;4985182;28;20038;-74
2021/01/23 03:51:20;;;;;;;13.05;4.32;;;12.10;65.50;;;;;;4993305;28;20121;-76
2021/01/23 03:53:47;;;;;;;14.73;4.00;;;12.10;65.70;;;;;;4996470;28;20089;-76
2021/01/23 03:56:13;;;;;;;15.25;3.95;;;12.10;65.20;;;;;;4991662;28;20032;-75
2021/01/23 03:58:40;;;;;;;15.40;4.82;;;12.10;65.40;;;;;;4991635;28;20042;-77
2021/01/23 04:01:06;;;;;;;19.05;4.03;;;12.30;65.20;;;;;;4992755;28;20128;-74
2021/01/23 04:03:32;;;;;;;19.13;4.43;;;12.40;64.00;;;;;;4995310;28;20033;-74
2021/01/23 04:05:59;;;;;;;16.85;4.97;;;12.50;64.70;;;;;;4995619;28;20026;-74
2021/01/23 04:08:25;;;;;;;14.98;3.95;;;12.40;63.70;;;;;;4990821;28;20030;-79
2021/01/23 04:10:52;;;;;;;11.65;3.97;;;12.30;64.10;;;;;;4990570;28;20088;-75
2021/01/23 04:13:18;;;;;;;8.90;4.40;;;12.10;63.80;;;;;;4997036;28;20034;-76
2021/01/23 04:15:45;;;;;;;13.50;4.53;;;11.90;64.40;;;;;;4991376;28;20358;-72
2021/01/23 04:18:12;;;;;;;15.57;4.82;;;11.80;63.80;;;;;;4993738;28;20044;-76
2021/01/23 04:20:38;;;;;;;15.55;4.50;;;11.70;64.30;;;;;;4992798;28;20018;-72
2021/01/23 04:23:05;;;;;;;6.35;4.00;;;11.60;64.90;;;;;;4994909;28;20026;-72
2021/01/23 04:25:31;;;;;;;6.22;3.25;;;11.40;65.70;;;;;;4991054;28;20056;-72
2021/01/23 04:27:58;;;;;;;12.40;3.90;;;11.30;66.20;;;;;;4989775;28;20030;-69
2021/01/23 04:30:24;;;;;;;19.75;5.03;;;11.20;66.00;;;;;;4988006;28;20106;-68
2021/01/23 04:32:52;;;;;;;12.93;4.20;;;11.10;65.60;;;;;;4989774;28;20101;-69
2021/01/23 04:35:18;;;;;;;20.05;5.55;;;11.10;66.50;;;;;;4981809;28;20465;-69
2021/01/23 04:37:45;;;;;;;19.27;5.40;;;11.20;65.40;;;;;;4987990;28;20478;-70
2021/01/23 04:40:12;;;;;;;16.27;4.97;;;11.40;64.80;;;;;;4985967;28;20023;-72
2021/01/23 04:42:43;;;;;;;13.80;5.60;;;11.20;64.90;;;;;;4989863;28;20014;-72
2021/01/23 04:45:12;;;;;;;11.98;4.07;;;11.10;65.10;;;;;;4988053;28;20027;-72
2021/01/23 04:47:39;;;;;;;16.58;4.03;;;11.10;63.90;;;;;;4988987;28;20050;-71
2021/01/23 04:50:08;;;;;;;10.38;4.28;;;11.00;65.40;;;;;;4991039;28;20092;-71
2021/01/23 04:52:37;;;;;;;16.23;4.45;;;10.90;66.20;;;;;;4986036;28;20030;-70
2021/01/23 04:55:05;;;;;;;14.13;4.03;;;10.90;65.80;;;;;;4990012;28;20027;-72
2021/01/23 04:57:31;;;;;;;8.48;4.25;;;10.80;66.50;;;;;;4987332;28;20029;-71
2021/01/23 04:59:58;;;;;;;15.07;4.25;;;10.70;65.70;;;;;;4988302;28;20356;-72
2021/01/23 05:02:25;;;;;;;9.50;4.38;;;10.70;66.10;;;;;;4992895;28;20022;-70
2021/01/23 05:05:00;;;;;;;14.40;5.07;;;10.60;66.40;;;;;;4989534;28;20051;-71
2021/01/23 05:07:29;;;;;;;14.80;4.95;;;10.70;66.00;;;;;;4984027;28;20386;-71
2021/01/23 05:09:57;;;;;;;15.10;4.63;;;10.90;66.40;;;;;;4987422;28;20066;-71
2021/01/23 05:12:38;;;;;;;13.60;4.55;;;11.10;66.50;;;;;;4990370;28;20049;-71
2021/01/23 05:15:08;;;;;;;18.95;4.63;;;10.90;65.60;;;;;;4990155;28;20038;-71
2021/01/23 05:17:51;;;;;;;9.40;3.83;;;10.80;66.10;;;;;;4984880;28;20034;-71
2021/01/23 05:20:37;;;;;;;14.50;4.25;;;10.60;66.10;;;;;;4992006;28;20038;-71
2021/01/23 05:23:28;;;;;;;15.23;4.43;;;10.60;66.00;;;;;;4989699;28;20033;-71
2021/01/23 05:25:55;;;;;;;15.63;4.57;;;10.50;65.70;;;;;;4991544;28;20317;-72
2021/01/23 05:28:39;;;;;;;17.25;4.75;;;10.60;67.40;;;;;;4991029;28;20038;-72
2021/01/23 05:31:16;;;;;;;19.08;4.93;;;10.70;66.80;;;;;;4992887;28;20114;-72
2021/01/23 05:33:43;;;;;;;15.85;4.63;;;10.70;67.10;;;;;;4991139;28;20034;-73
2021/01/23 05:36:14;;;;;;;10.18;4.43;;;10.70;67.00;;;;;;4990303;28;20057;-71
2021/01/23 05:38:42;;;;;;;18.05;6.32;;;10.70;67.10;;;;;;4991509;28;20030;-71
2021/01/23 05:41:08;;;;;;;14.07;6.00;;;10.80;67.40;;;;;;4984344;28;20026;-71
2021/01/23 05:43:40;;;;;;;14.45;4.65;;;10.90;68.00;;;;;;4984200;28;20049;-71
2021/01/23 05:46:17;;;;;;;15.15;3.75;;;10.70;67.80;;;;;;4993536;28;20066;-71
2021/01/23 05:48:46;;;;;;;14.55;4.50;;;10.70;66.80;;;;;;4984829;28;20169;-71
2021/01/23 05:51:13;;;;;;;11.20;3.40;;;10.70;66.80;;;;;;4988900;28;20023;-71
2021/01/23 05:53:40;;;;;;;9.55;4.50;;;10.60;67.60;;;;;;4988506;28;20038;-71
2021/01/23 05:56:09;;;;;;;10.23;4.00;;;10.60;68.10;;;;;;4989235;28;20034;-71
2021/01/23 05:58:38;;;;;;;11.40;5.03;;;10.60;68.20;;;;;;4979886;28;20054;-71
2021/01/23 06:01:25;;;;;;;9.82;4.70;;;10.70;67.20;;;;;;4986151;28;20325;-71
2021/01/23 06:03:54;;;;;;;12.27;4.80;;;10.70;66.60;;;;;;4983548;28;20109;-71
2021/01/23 06:06:20;;;;;;;14.45;5.00;;;10.70;66.60;;;;;;4979135;28;20134;-72
2021/01/23 06:08:48;;;;;;;7.68;4.45;;;10.80;67.10;;;;;;4987757;28;20054;-71
2021/01/23 06:11:20;;;;;;;12.63;4.47;;;10.90;66.70;;;;;;4988457;28;20041;-71
2021/01/23 06:13:49;;;;;;;10.02;3.97;;;10.70;67.40;;;;;;4984638;28;20528;-72
2021/01/23 06:16:34;;;;;;;16.17;4.53;;;10.70;67.90;;;;;;4987491;28;20042;-72
2021/01/23 06:19:04;;;;;;;13.77;4.53;;;10.70;67.50;;;;;;4990888;28;20148;-72
2021/01/23 06:21:43;;;;;;;8.43;3.67;;;10.60;68.00;;;;;;4992324;28;20106;-71
2021/01/23 06:24:32;;;;;;;9.95;3.83;;;10.60;68.50;;;;;;4990391;28;20409;-73
2021/01/23 06:27:00;;;;;;;8.98;4.10;;;10.60;67.80;;;;;;4990342;28;20487;-71
2021/01/23 06:29:36;;;;;;;13.50;4.88;;;10.70;68.20;;;;;;4987425;28;20038;-72
2021/01/23 06:32:16;;;;;;;9.18;3.78;;;10.80;66.80;;;;;;4993116;28;20383;-71
2021/01/23 06:34:54;;;;;;;10.05;4.00;;;10.70;67.80;;;;;;4989842;28;20034;-72
2021/01/23 06:37:37;;;;;;;12.20;4.75;;;10.70;68.30;;;;;;4980382;28;20117;-71
2021/01/23 06:40:15;;;;;;;13.70;3.80;;;10.80;66.80;;;;;;4987747;28;20307;-71
2021/01/23 06:42:49;;;;;;;10.77;3.72;;;10.80;67.40;;;;;;4974550;28;20349;-71
2021/01/23 06:45:20;;;;;;;12.20;3.88;;;10.80;68.10;;;;;;4986751;28;20031;-71
2021/01/23 06:47:52;;;;;;;11.17;4.30;;;10.80;68.00;;;;;;4981586;28;20026;-71
2021/01/23 06:50:36;;;;;;;7.25;3.17;;;10.80;67.70;;;;;;4988178;28;20119;-71
2021/01/23 06:53:04;;;;;;;43.05;6.13;;;10.90;67.60;;;;;;4975167;28;20381;-72
2021/01/23 06:55:42;;;;;;;11.80;4.55;;;10.90;66.60;;;;;;4985394;28;20026;-71
2021/01/23 06:58:20;;;;;;;17.38;5.05;;;11.00;66.40;;;;;;4987869;28;20041;-71
2021/01/23 07:00:48;;;;;;;7.43;4.13;;;11.00;66.60;;;;;;4988901;28;20085;-71
2021/01/23 07:03:16;;;;;;;12.23;3.60;;;10.90;67.30;;;;;;4993362;28;20558;-72
2021/01/23 07:05:52;;;;;;;12.57;3.63;;;10.90;66.90;;;;;;4991920;28;20019;-71
2021/01/23 07:08:27;;;;;;;8.25;3.30;;;10.80;68.40;;;;;;4993238;28;20030;-71
2021/01/23 07:11:21;;;;;;;15.68;4.00;;;10.70;68.50;;;;;;4991514;28;20170;-71
2021/01/23 07:14:03;;;;;;;17.20;5.47;;;10.70;68.30;;;;;;4985589;28;20018;-71
2021/01/23 07:16:35;;;;;;;9.07;4.05;;;10.80;66.90;;;;;;4989561;28;20030;-70
2021/01/23 07:19:04;;;;;;;8.73;3.70;;;10.90;66.70;;;;;;4991543;28;20034;-71
2021/01/23 07:21:36;;;;;;;13.48;5.47;;;10.90;66.60;;;;;;4994835;28;20105;-71
2021/01/23 07:24:03;;;;;;;14.10;4.60;;;11.00;67.20;;;;;;4995357;28;20014;-71
2021/01/23 07:26:31;;;;;;;12.05;4.15;;;11.00;66.70;;;;;;4994314;28;20030;-71
2021/01/23 07:28:58;;;;;;;10.48;4.13;;;10.90;67.50;;;;;;4995776;28;20109;-71
2021/01/23 07:31:29;;;;;;;19.65;4.68;;;10.80;67.50;;;;;;4992799;28;20030;-71
2021/01/23 07:33:58;;;;;;;13.10;4.77;;;10.70;67.90;;;;;;4995392;28;20094;-70
2021/01/23 07:36:38;;;;;;;9.05;3.38;;;10.70;68.00;;;;;;4987633;28;20319;-71
2021/01/23 07:39:06;;;;;;;13.77;4.18;;;10.70;66.80;;;;;;4993047;28;20101;-71
2021/01/23 07:41:33;;;;;;;9.65;4.60;;;10.80;67.20;;;;;;4994016;28;20461;-71
2021/01/23 07:44:02;;;;;;;15.43;4.03;;;10.90;67.20;;;;;;4994370;28;20081;-71
2021/01/23 07:46:37;;;;;;;23.15;7.55;;;11.00;68.10;;;;;;4996605;28;20024;-71
2021/01/23 07:49:04;;;;;;;25.65;6.60;;;11.10;67.00;;;;;;4987578;28;20033;-71
2021/01/23 07:51:31;;;;;;;8.60;4.38;;;11.00;67.00;;;;;;4994422;28;20029;-71
2021/01/23 07:54:10;;;;;;;14.13;4.85;;;10.90;66.80;;;;;;4994603;28;20345;-71
2021/01/23 07:56:38;;;;;;;21.13;4.72;;;10.80;67.10;;;;;;4995582;28;20034;-71
2021/01/23 07:59:04;;;;;;;19.52;5.07;;;10.80;67.90;;;;;;4994537;28;20061;-71
2021/01/23 08:01:31;;;;;;;14.82;4.85;;;10.90;68.60;;;;;;4995871;28;20022;-71
2021/01/23 08:03:58;;;;;;;15.85;4.90;;;10.80;67.80;;;;;;4993225;28;20023;-71
2021/01/23 08:06:26;;;;;;;17.75;5.50;;;10.80;67.70;;;;;;4990890;28;20027;-71
2021/01/23 08:08:55;;;;;;;21.40;6.00;;;10.90;68.40;;;;;;4994864;28;20022;-71
2021/01/23 08:11:40;;;;;;;9.20;4.15;;;10.90;68.80;;;;;;4996131;28;20456;-71
2021/01/23 08:14:16;;;;;;;19.95;5.72;;;10.80;68.10;;;;;;4992033;28;20062;-71
2021/01/23 08:16:56;;;;;;;10.77;4.15;;;10.80;68.50;;;;;;4995290;28;20022;-71
2021/01/23 08:19:23;;;;;;;17.92;6.13;;;10.80;68.10;;;;;;4994368;28;20452;-71
2021/01/23 08:22:08;;;;;;;16.65;6.38;;;10.80;68.40;;;;;;4993448;28;20034;-71
2021/01/23 08:24:34;;;;;;;12.93;4.45;;;10.80;68.00;;;;;;4993836;28;20044;-71
2021/01/23 08:27:22;;;;;;;17.13;4.95;;;10.80;68.30;;;;;;4987639;28;20088;-71
2021/01/23 08:29:50;;;;;;;19.20;5.05;;;10.70;68.70;;;;;;4992558;28;20412;-72
2021/01/23 08:32:17;;;;;;;8.88;3.50;;;10.60;69.10;;;;;;4985842;28;20082;-69
2021/01/23 08:34:44;;;;;;;11.82;4.03;;;10.60;69.10;;;;;;4984339;28;20085;-72
2021/01/23 08:37:12;;;;;;;12.25;4.07;;;10.60;68.90;;;;;;4992532;28;20035;-72
2021/01/23 08:39:47;;;;;;;11.68;4.35;;;10.60;68.70;;;;;;4994923;28;20393;-72
2021/01/23 08:42:13;;;;;;;13.48;4.90;;;10.60;68.50;;;;;;4995138;28;20026;-72
2021/01/23 08:44:40;;;;;;;13.02;5.22;;;10.60;67.60;;;;;;4996021;28;20122;-71
2021/01/23 08:47:06;;;;;;;15.63;4.25;;;10.60;67.40;;;;;;4991443;28;20082;-70
2021/01/23 08:49:33;;;;;;;14.60;4.80;;;10.70;67.60;;;;;;4978171;28;20491;-70
2021/01/23 08:52:00;;;;;;;12.38;5.10;;;10.70;67.30;;;;;;4980729;28;20033;-70
2021/01/23 08:54:26;;;;;;;12.70;4.82;;;10.50;67.60;;;;;;4994525;28;20037;-72
2021/01/23 08:56:53;;;;;;;14.02;5.03;;;10.40;67.90;;;;;;4994600;28;20045;-71
2021/01/23 08:59:19;;;;;;;15.18;4.75;;;10.30;67.60;;;;;;4993541;28;20054;-70
2021/01/23 09:01:46;;;;;;;27.15;5.18;;;10.30;67.00;;;;;;4992789;28;20101;-70
2021/01/23 09:04:12;;;;;;;12.30;5.10;;;10.30;67.20;;;;;;4994791;28;20022;-72
2021/01/23 09:06:39;;;;;;;17.10;5.30;;;10.30;67.10;;;;;;4993856;28;20023;-71
2021/01/23 09:09:06;;;;;;;16.63;6.15;;;10.20;67.20;;;;;;4993575;28;20030;-71
2021/01/23 09:11:36;;;;;;;16.45;5.35;;;10.10;67.50;;;;;;4994770;28;20041;-72
2021/01/23 09:14:03;;;;;;;18.27;6.22;;;10.00;68.40;;;;;;4986313;28;20023;-71
2021/01/23 09:16:30;;;;;;;21.27;5.85;;;9.90;68.90;;;;;;4996153;28;20033;-72
2021/01/23 09:18:57;;;;;;;21.50;5.72;;;9.90;68.20;;;;;;4994372;28;20057;-71
2021/01/23 09:21:23;;;;;;;15.70;4.97;;;9.90;68.60;;;;;;4994636;28;20444;-71
2021/01/23 09:23:50;;;;;;;16.50;5.28;;;9.90;67.80;;;;;;4995925;28;20027;-73
2021/01/23 09:26:16;;;;;;;13.68;4.82;;;9.90;68.30;;;;;;4990388;28;20117;-72
2021/01/23 09:28:43;;;;;;;32.30;6.60;;;9.90;68.00;;;;;;4992893;28;20038;-72
2021/01/23 09:31:09;;;;;;;12.07;5.03;;;9.90;68.30;;;;;;4992875;28;20026;-72
2021/01/23 09:33:36;;;;;;;21.25;6.65;;;9.90;67.90;;;;;;4990146;28;20162;-72
2021/01/23 09:36:03;;;;;;;18.48;4.75;;;9.70;68.70;;;;;;4990852;28;20034;-72
2021/01/23 09:38:30;;;;;;;17.92;5.03;;;9.60;68.10;;;;;;4990575;28;20129;-72
2021/01/23 09:40:56;;;;;;;15.77;4.45;;;9.70;68.80;;;;;;4990810;28;20037;-71
2021/01/23 09:43:22;;;;;;;16.67;5.03;;;9.80;68.80;;;;;;4994483;28;20033;-72
2021/01/23 09:45:50;;;;;;;12.95;4.70;;;9.80;68.20;;;;;;4992169;28;20022;-71
2021/01/23 09:48:16;;;;;;;22.60;6.35;;;9.70;68.20;;;;;;4985597;28;20773;-72
2021/01/23 09:50:43;;;;;;;19.63;5.13;;;9.60;68.80;;;;;;4985258;28;20031;-72
2021/01/23 09:53:10;;;;;;;18.45;4.45;;;9.50;68.90;;;;;;4988072;28;20022;-71
2021/01/23 09:55:36;;;;;;;17.55;4.78;;;9.50;69.10;;;;;;4984246;28;20037;-72
2021/01/23 09:58:03;;;;;;;19.08;5.80;;;9.40;68.80;;;;;;4993139;28;20385;-71
2021/01/23 10:00:30;;;;;;;21.50;4.53;;;9.50;69.30;;;;;;4991504;28;20065;-72
2021/01/23 10:02:56;;;;;;;16.50;5.68;;;9.60;68.80;;;;;;4986881;28;20026;-71
2021/01/23 10:05:22;;;;;;;12.57;5.60;;;9.60;68.70;;;;;;4991834;28;20029;-72
2021/01/23 10:07:50;;;;;;;17.27;4.50;;;9.60;69.20;;;;;;4992005;28;20030;-72
2021/01/23 10:10:17;;;;;;;15.82;4.95;;;9.60;69.20;;;;;;4991084;28;20125;-72
2021/01/23 10:12:43;;;;;;;20.67;7.45;;;9.60;70.10;;;;;;4990884;28;20057;-72
2021/01/23 10:15:10;;;;;;;10.45;4.90;;;9.70;70.70;;;;;;4994200;28;20057;-72
2021/01/23 10:17:36;;;;;;;21.70;5.95;;;9.70;70.60;;;;;;4988916;28;20027;-72
2021/01/23 10:20:04;;;;;;;19.55;5.65;;;9.90;71.10;;;;;;4990945;28;20034;-71
2021/01/23 10:22:30;;;;;;;17.83;5.78;;;9.80;70.80;;;;;;4989847;28;20019;-72
2021/01/23 10:24:57;;;;;;;12.60;4.45;;;9.70;70.50;;;;;;4993718;28;20065;-71
2021/01/23 10:27:24;;;;;;;18.00;5.05;;;9.80;70.30;;;;;;4990500;28;20046;-71
2021/01/23 10:29:52;;;;;;;14.40;4.88;;;9.70;70.30;;;;;;4988210;28;20026;-71
2021/01/23 10:32:18;;;;;;;21.85;5.63;;;9.70;70.60;;;;;;4992905;28;20030;-72
2021/01/23 10:34:45;;;;;;;19.55;6.13;;;9.80;71.20;;;;;;4994257;28;20487;-72
2021/01/23 10:37:12;;;;;;;17.50;5.13;;;9.70;70.70;;;;;;4987571;28;20038;-71
2021/01/23 10:39:39;;;;;;;11.85;5.53;;;9.70;71.10;;;;;;4993106;28;20483;-72
2021/01/23 10:42:05;;;;;;;17.05;5.32;;;9.50;70.80;;;;;;4993248;28;20088;-71
2021/01/23 10:44:38;;;;;;;14.65;5.80;;;9.50;71.00;;;;;;4993356;28;20030;-71
2021/01/23 10:47:05;;;;;;;17.63;5.50;;;9.50;71.50;;;;;;4993625;28;20022;-71
2021/01/23 10:49:31;;;;;;;22.73;7.72;;;9.60;71.10;;;;;;4993390;28;20453;-72
2021/01/23 10:51:58;;;;;;;15.75;5.65;;;9.60;71.00;;;;;;4994016;28;20587;-71
2021/01/23 10:54:24;;;;;;;10.90;4.85;;;9.50;70.90;;;;;;4993850;28;20487;-71
2021/01/23 10:56:51;;;;;;;21.08;6.60;;;9.50;71.70;;;;;;4996414;28;20126;-71
2021/01/23 10:59:17;;;;;;;17.02;5.70;;;9.60;70.90;;;;;;4987440;28;20031;-72
2021/01/23 11:01:43;;;;;;;13.70;5.53;;;9.50;70.80;;;;;;4996493;28;20027;-72
2021/01/23 11:04:10;;;;;;;18.70;6.18;;;9.50;71.70;;;;;;5003897;28;20423;-72
2021/01/23 11:06:36;;;;;;;12.25;5.00;;;9.40;71.40;;;;;;4992928;28;20029;-71
2021/01/23 11:09:04;;;;;;;15.40;4.72;;;9.40;71.30;;;;;;4995551;28;20023;-72
2021/01/23 11:11:33;;;;;;;10.65;4.75;;;9.40;71.40;;;;;;4995103;28;21448;-71
2021/01/23 11:14:00;;;;;;;11.90;4.57;;;9.40;71.80;;;;;;4992995;28;20037;-71
2021/01/23 11:16:26;;;;;;;13.48;4.90;;;9.40;71.70;;;;;;4997613;28;20345;-71
2021/01/23 11:18:54;;;;;;;14.43;5.68;;;9.40;71.70;;;;;;4996630;28;20475;-72
2021/01/23 11:21:20;;;;;;;14.48;4.53;;;9.50;71.50;;;;;;4996721;28;20026;-71
2021/01/23 11:23:47;;;;;;;20.35;4.80;;;9.60;70.60;;;;;;4996535;28;20416;-72
2021/01/23 11:26:13;;;;;;;15.77;5.85;;;9.70;70.10;;;;;;4995968;28;20022;-72
2021/01/23 11:28:39;;;;;;;12.45;4.82;;;9.70;70.70;;;;;;4996418;28;20022;-72
2021/01/23 11:31:09;;;;;;;10.52;5.13;;;9.70;70.90;;;;;;4996692;28;20042;-71
2021/01/23 11:33:36;;;;;;;17.75;5.13;;;9.80;71.20;;;;;;4995614;28;20088;-71
2021/01/23 11:36:03;;;;;;;13.27;5.78;;;9.80;70.80;;;;;;4990044;28;20026;-71
2021/01/23 11:38:30;;;;;;;12.25;5.10;;;9.90;71.30;;;;;;4992857;28;20037;-71
2021/01/23 11:40:56;;;;;;;12.35;4.90;;;10.00;70.80;;;;;;4996880;28;20092;-71
2021/01/23 11:43:22;;;;;;;11.18;5.25;;;9.90;71.00;;;;;;4997265;28;20440;-71
2021/01/23 11:45:49;;;;;;;13.43;5.38;;;9.80;71.40;;;;;;4995878;28;20022;-71
2021/01/23 11:48:15;;;;;;;10.05;4.72;;;9.70;70.90;;;;;;4996622;28;20511;-71
2021/01/23 11:50:42;;;;;;;16.73;5.03;;;9.80;71.10;;;;;;4991819;28;20034;-71
2021/01/23 11:53:08;;;;;;;17.77;5.90;;;9.80;70.90;;;;;;4995137;28;20034;-71
2021/01/23 11:55:34;;;;;;;11.57;5.05;;;9.90;71.50;;;;;;4993891;28;20033;-71
2021/01/23 11:58:01;;;;;;;11.13;4.30;;;9.90;71.60;;;;;;4988356;28;20102;-71
2021/01/23 12:00:28;;;;;;;14.10;5.43;;;9.80;71.60;;;;;;4981983;28;20033;-71
2021/01/23 12:02:54;;;;;;;17.05;5.18;;;9.90;71.30;;;;;;4984917;28;20030;-72
2021/01/23 12:05:21;;;;;;;19.40;4.45;;;9.90;71.20;;;;;;4990180;28;20034;-71
2021/01/23 12:07:48;;;;;;;7.07;4.43;;;9.80;72.10;;;;;;4991273;28;20514;-71
2021/01/23 12:10:16;;;;;;;11.10;5.75;;;9.80;72.50;;;;;;4995623;28;20076;-71
2021/01/23 12:12:43;;;;;;;8.80;4.03;;;9.80;72.00;;;;;;4993598;28;20026;-71
2021/01/23 12:15:10;;;;;;;11.70;4.53;;;9.90;72.00;;;;;;4990751;28;20022;-71
2021/01/23 12:17:36;;;;;;;16.08;4.43;;;9.90;71.30;;;;;;4985128;28;20094;-71
2021/01/23 12:20:08;;;;;;;15.85;5.60;;;10.00;70.90;;;;;;4993954;28;20037;-71
2021/01/23 12:22:35;;;;;;;9.68;4.50;;;10.10;70.90;;;;;;4991025;28;20396;-71
2021/01/23 12:25:03;;;;;;;14.60;5.15;;;10.10;71.80;;;;;;4994897;28;20050;-71
2021/01/23 12:27:29;;;;;;;12.45;4.75;;;10.10;71.90;;;;;;4995186;28;20033;-71
2021/01/23 12:29:56;;;;;;;15.88;6.00;;;10.10;71.90;;;;;;4993198;28;20090;-71
2021/01/23 12:32:22;;;;;;;17.63;6.38;;;10.00;73.10;;;;;;4996783;28;20104;-71
2021/01/23 12:34:48;;;;;;;12.52;5.45;;;10.10;72.00;;;;;;4993413;28;20451;-71
2021/01/23 12:37:15;;;;;;;10.43;4.80;;;10.10;73.30;;;;;;4994848;28;20460;-71
2021/01/23 12:39:41;;;;;;;12.13;5.00;;;10.10;73.10;;;;;;4996349;28;20038;-71
2021/01/23 12:42:08;;;;;;;12.43;5.18;;;10.30;73.20;;;;;;4993367;28;20055;-71
2021/01/23 12:44:34;;;;;;;16.42;5.97;;;10.30;73.70;;;;;;4997665;28;20019;-71
2021/01/23 12:47:01;;;;;;;12.10;5.72;;;10.30;73.40;;;;;;4995511;28;20034;-71
2021/01/23 12:49:27;;;;;;;13.23;5.53;;;10.40;73.40;;;;;;4997403;28;20108;-71
2021/01/23 12:51:53;;;;;;;17.42;6.97;;;10.50;73.00;;;;;;4988297;28;20109;-71